• LFSB

    METAR de LFSB (émis le 2020/04/04 16:30 UTC):
    LFSB 041630Z AUTO 02006KT 340V060 CAVOK 17/03 Q1020 NOSIG

    TAF de LFSB (émis le 2020/04/04 12:21 UTC):
    LFSB 041104Z 0412/0512 36005KT CAVOK PROB30 TEMPO 0503/0506 VRB01KT 5000 MIFG
  • LFSX

    METAR de LFSX (émis le 2020/04/04 16:30 UTC):
    LFSX 041630Z AUTO 17004KT 110V210 CAVOK 17/M00 Q1020

    TAF de LFSX (émis le 2020/04/04 15:24 UTC):
    LFSX 041400Z 0415/0515 11005KT CAVOK
  • LFSD

    METAR de LFSD (émis le 2020/04/04 16:30 UTC):
    LFSD 041630Z AUTO 10003KT 070V140 CAVOK 17/01 Q1019

    TAF de LFSD (émis le 2015/06/01 00:11 UTC):
    LFSD 010600Z 0100/0124 CNL
  • LFGJ

    METAR de LFGJ (émis le 2020/04/04 16:30 UTC):
    LFGJ 041630Z AUTO VRB02KT CAVOK 19/01 Q1019 NOSIG

    TAF COURT de LFGJ
    (émis le 2020/03/30 13:18 UTC):
    TAF TAF LFGJ 301312Z 3013/3021 CNL
  • LFJL

    METAR de LFJL (émis le 2020/04/04 16:30 UTC):
    LFJL 041630Z AUTO 08009KT 050V120 CAVOK 15/01 Q1021

    TAF de LFJL (émis le 2020/03/23 21:39 UTC):
    LFJL 232135Z 2321/2418 CNL
  • LFST

    METAR de LFST (émis le 2020/04/04 16:30 UTC):
    LFST 041630Z AUTO 03010KT CAVOK 16/02 Q1021 NOSIG

    TAF de LFST (émis le 2020/04/04 12:21 UTC):
    LFST 041104Z 0412/0512 03006KT CAVOK